Time;durP1;ratioP1;P1;durP2;ratioP2;P2;SDS_P1;SDS_P2;PMS_P1;PMS_P2;Temp;Humidity;BMP_temperature;BMP_pressure;BME280_temperature;BME280_humidity;BME280_pressure;Samples;Min_cycle;Max_cycle;Signal;HPM_P1;HPM_P2
2023/04/26 04:02:56;;;;;;;8.18;4.32;;;;;;;10.55;63.45;100019.34;5612681;31;78698;-55
2023/04/26 04:06:00;;;;;;;6.72;4.10;;;;;;;10.55;63.45;100019.34;5603271;31;33119;-56
2023/04/26 04:09:06;;;;;;;4.93;3.72;;;;;;;9.92;63.67;100028.38;5598180;31;34276;-56
2023/04/26 04:12:09;;;;;;;6.43;3.70;;;;;;;10.10;63.79;100032.22;5583779;31;33680;-55
2023/04/26 04:15:11;;;;;;;6.15;4.00;;;;;;;10.19;63.78;100041.19;5579370;31;34420;-55
2023/04/26 04:18:15;;;;;;;7.30;4.30;;;;;;;10.17;64.41;100043.38;5583567;31;33636;-56
2023/04/26 04:21:18;;;;;;;6.28;3.35;;;;;;;10.09;62.08;100031.38;5572260;31;33670;-56
2023/04/26 04:24:20;;;;;;;8.95;4.03;;;;;;;10.18;64.67;100039.59;5583116;31;34293;-55
2023/04/26 04:27:22;;;;;;;8.13;3.72;;;;;;;10.09;63.12;100030.59;5583109;31;34540;-56
2023/04/26 04:30:25;;;;;;;9.13;4.22;;;;;;;10.21;63.50;100035.56;5581856;31;33217;-55
2023/04/26 04:33:27;;;;;;;6.80;3.58;;;;;;;10.25;62.11;100056.12;5582858;31;33281;-56
2023/04/26 04:36:31;;;;;;;6.03;3.65;;;;;;;10.24;62.83;100059.09;5582949;31;33684;-55
2023/04/26 04:39:33;;;;;;;3.97;3.15;;;;;;;10.30;62.09;100063.34;5582907;31;33683;-55
2023/04/26 04:42:35;;;;;;;5.25;3.50;;;;;;;10.27;61.28;100072.75;5582714;31;33445;-55
2023/04/26 04:45:38;;;;;;;7.03;3.55;;;;;;;10.31;61.58;100079.12;5582202;31;33381;-56
2023/04/26 04:48:41;;;;;;;8.15;4.32;;;;;;;10.48;62.40;100081.34;5581994;31;34427;-57
2023/04/26 04:51:43;;;;;;;7.62;3.87;;;;;;;10.46;60.65;100094.25;5581340;32;34003;-55
2023/04/26 04:54:47;;;;;;;6.03;3.60;;;;;;;10.61;62.18;100084.41;5582644;31;35068;-55
2023/04/26 04:57:50;;;;;;;7.22;3.92;;;;;;;10.70;62.30;100088.84;5581916;32;33584;-56
2023/04/26 05:00:54;;;;;;;7.95;3.80;;;;;;;10.58;60.38;100101.87;5581071;31;33341;-56
2023/04/26 05:03:58;;;;;;;6.07;3.75;;;;;;;10.40;61.63;100105.28;5582347;31;33522;-55
2023/04/26 05:07:01;;;;;;;8.05;4.07;;;;;;;10.56;62.29;100106.69;5577335;31;33401;-55
2023/04/26 05:10:03;;;;;;;6.70;3.97;;;;;;;10.29;60.36;100112.63;5581786;31;33129;-55
2023/04/26 05:13:06;;;;;;;11.20;5.07;;;;;;;10.35;61.73;100119.53;5572643;31;32208;-55
2023/04/26 05:16:08;;;;;;;11.50;4.60;;;;;;;10.33;62.01;100108.31;5569642;32;33722;-56
2023/04/26 05:19:12;;;;;;;12.57;4.60;;;;;;;10.24;60.39;100105.44;5569671;32;33260;-56
2023/04/26 05:22:17;;;;;;;8.15;4.30;;;;;;;10.20;60.85;100112.44;5569484;31;33628;-56
2023/04/26 05:25:20;;;;;;;8.82;4.60;;;;;;;10.24;60.70;100118.03;5569705;31;33161;-55
2023/04/26 05:28:24;;;;;;;10.02;4.37;;;;;;;10.33;61.57;100119.03;5569905;31;34192;-56
2023/04/26 05:31:26;;;;;;;7.68;4.40;;;;;;;10.43;58.45;100118.13;5569351;31;34412;-55
2023/04/26 05:34:29;;;;;;;11.38;5.10;;;;;;;10.34;60.74;100126.00;5569819;31;34270;-56
2023/04/26 05:37:32;;;;;;;9.50;4.68;;;;;;;10.34;58.70;100124.09;5569634;31;34362;-56
2023/04/26 05:40:35;;;;;;;9.88;4.47;;;;;;;10.27;56.90;100133.56;5569035;31;33594;-56
2023/04/26 05:43:37;;;;;;;9.55;4.40;;;;;;;10.28;56.70;100127.91;5569592;31;33205;-55
2023/04/26 05:46:40;;;;;;;9.80;5.20;;;;;;;10.50;56.85;100137.34;5569451;31;34276;-56
2023/04/26 05:49:42;;;;;;;12.95;4.05;;;;;;;10.53;55.96;100142.16;5569459;31;33441;-56
2023/04/26 05:52:45;;;;;;;10.05;4.25;;;;;;;10.52;55.45;100143.22;5569088;31;33370;-55
2023/04/26 05:55:48;;;;;;;10.88;4.60;;;;;;;10.72;55.62;100142.97;5567421;31;33550;-56
2023/04/26 05:58:52;;;;;;;9.40;4.00;;;;;;;10.85;57.41;100149.53;5569208;31;33319;-56
2023/04/26 06:01:54;;;;;;;8.00;3.97;;;;;;;11.03;54.69;100151.44;5568569;32;33949;-56
2023/04/26 06:04:57;;;;;;;9.70;4.25;;;;;;;11.10;53.02;100151.09;5568969;31;33195;-56
2023/04/26 06:08:00;;;;;;;10.88;4.22;;;;;;;11.09;56.13;100156.72;5567328;31;34475;-55
2023/04/26 06:11:03;;;;;;;9.93;4.22;;;;;;;11.18;52.64;100163.06;5565003;32;34148;-55
2023/04/26 06:14:05;;;;;;;7.97;3.97;;;;;;;11.03;52.63;100153.34;5569199;32;34420;-56
2023/04/26 06:17:13;;;;;;;9.52;4.40;;;;;;;11.01;52.70;100174.28;5569081;32;33645;-55
2023/04/26 06:20:17;;;;;;;9.52;4.82;;;;;;;11.04;52.78;100171.81;5569174;32;33713;-56
2023/04/26 06:23:19;;;;;;;8.68;4.00;;;;;;;11.01;51.49;100168.91;5563162;32;33194;-56
2023/04/26 06:26:21;;;;;;;7.37;3.67;;;;;;;11.14;50.58;100178.94;5559678;32;34424;-55
2023/04/26 06:29:24;;;;;;;7.03;3.72;;;;;;;11.05;50.15;100183.34;5562423;32;33797;-57
2023/04/26 06:32:27;;;;;;;7.82;4.32;;;;;;;11.01;50.30;100171.59;5564020;32;33606;-56
2023/04/26 06:35:30;;;;;;;9.85;4.40;;;;;;;11.39;63.29;100177.78;5565441;32;34300;-56
2023/04/26 06:38:32;;;;;;;18.98;6.65;;;;;;;11.52;52.86;100170.88;5565074;31;34433;-56
2023/04/26 06:41:35;;;;;;;8.63;3.92;;;;;;;11.56;50.23;100168.44;5562768;31;33229;-56
2023/04/26 06:44:37;;;;;;;7.68;3.80;;;;;;;11.43;50.95;100173.44;5566991;31;33328;-55
2023/04/26 06:47:40;;;;;;;9.27;4.30;;;;;;;11.29;50.37;100167.19;5567074;32;33717;-56
2023/04/26 06:50:42;;;;;;;11.38;4.47;;;;;;;11.38;50.54;100175.38;5565722;31;33460;-56
2023/04/26 06:53:44;;;;;;;9.95;4.35;;;;;;;11.43;49.67;100181.50;5566393;32;33831;-55
2023/04/26 06:56:47;;;;;;;7.97;4.28;;;;;;;11.70;49.09;100180.03;5558492;32;33741;-56
2023/04/26 06:59:50;;;;;;;8.00;3.83;;;;;;;11.69;49.30;100173.84;5563490;32;33544;-55
2023/04/26 07:02:52;;;;;;;8.00;4.10;;;;;;;11.82;49.25;100180.38;5560710;32;34291;-56
2023/04/26 07:05:58;;;;;;;6.57;3.90;;;;;;;11.99;48.80;100190.59;5566648;32;33308;-55
2023/04/26 07:09:01;;;;;;;7.50;3.87;;;;;;;11.77;49.39;100186.59;5564627;32;34944;-57
2023/04/26 07:12:04;;;;;;;9.52;3.92;;;;;;;11.87;53.85;100179.50;5564722;32;33592;-55
2023/04/26 07:15:07;;;;;;;8.35;3.90;;;;;;;11.87;50.30;100179.50;5565687;32;33613;-55
2023/04/26 07:18:10;;;;;;;7.22;3.70;;;;;;;11.91;47.87;100184.00;5559331;32;33716;-55
2023/04/26 07:21:12;;;;;;;12.70;4.28;;;;;;;12.07;50.35;100189.13;5560224;32;33590;-55
2023/04/26 07:24:14;;;;;;;7.60;3.50;;;;;;;12.20;50.21;100188.38;5564236;32;34249;-55
2023/04/26 07:27:16;;;;;;;9.32;3.80;;;;;;;12.01;46.70;100201.84;5563400;32;34246;-56
2023/04/26 07:30:19;;;;;;;8.65;3.20;;;;;;;11.93;47.85;100194.47;5566605;32;33706;-56
2023/04/26 07:33:21;;;;;;;7.57;3.22;;;;;;;11.86;45.24;100216.31;5565195;32;33664;-56
2023/04/26 07:36:24;;;;;;;7.70;3.83;;;;;;;11.65;43.63;100221.16;5561281;32;33589;-57
2023/04/26 07:39:26;;;;;;;9.68;2.92;;;;;;;11.66;42.63;100203.97;5557545;32;33633;-55
2023/04/26 07:42:29;;;;;;;9.75;3.17;;;;;;;11.94;45.19;100215.66;5566759;32;34375;-56
2023/04/26 07:45:31;;;;;;;6.55;2.92;;;;;;;12.32;46.52;100233.59;5564595;32;33718;-56
2023/04/26 07:48:34;;;;;;;8.25;3.10;;;;;;;11.99;44.33;100236.28;5564187;32;33124;-56
2023/04/26 07:51:36;;;;;;;6.85;2.90;;;;;;;11.79;41.49;100240.03;5560293;32;33776;-55
2023/04/26 07:54:39;;;;;;;6.20;3.05;;;;;;;11.89;42.96;100229.19;5566768;32;34351;-56
2023/04/26 07:57:41;;;;;;;10.82;3.20;;;;;;;11.97;45.77;100225.00;5564843;32;34244;-55
2023/04/26 08:00:45;;;;;;;8.43;3.20;;;;;;;11.80;41.35;100236.25;5563335;32;34272;-55
2023/04/26 08:03:48;;;;;;;9.00;4.22;;;;;;;11.84;43.30;100233.78;5553543;32;33379;-57
2023/04/26 08:06:51;;;;;;;7.55;2.92;;;;;;;11.93;45.79;100237.44;5565530;32;33755;-57
2023/04/26 08:09:53;;;;;;;8.27;3.03;;;;;;;12.00;43.25;100237.88;5565635;31;34244;-58
2023/04/26 08:12:56;;;;;;;7.10;3.60;;;;;;;12.12;42.46;100246.28;5557227;32;33965;-58
2023/04/26 08:15:58;;;;;;;13.05;3.72;;;;;;;12.05;43.97;100242.34;5558510;32;33371;-58
2023/04/26 08:19:02;;;;;;;8.68;3.25;;;;;;;12.04;43.53;100240.75;5562751;32;33674;-58
2023/04/26 08:22:05;;;;;;;5.28;2.92;;;;;;;12.14;43.47;100238.69;5558611;32;33581;-59
2023/04/26 08:25:08;;;;;;;8.98;3.22;;;;;;;12.36;44.33;100251.53;5556211;32;34200;-58
2023/04/26 08:28:13;;;;;;;15.93;3.30;;;;;;;12.39;41.72;100247.44;5550314;32;34308;-58
2023/04/26 08:31:15;;;;;;;8.45;3.25;;;;;;;12.26;41.46;100249.00;5551369;32;33657;-58
2023/04/26 08:34:19;;;;;;;7.20;3.05;;;;;;;12.29;41.53;100251.09;5567108;32;34726;-58
2023/04/26 08:37:21;;;;;;;9.10;2.90;;;;;;;12.01;41.23;100258.25;5565222;32;33585;-58
2023/04/26 08:40:24;;;;;;;5.55;2.87;;;;;;;12.26;46.27;100242.84;5566157;32;33214;-58
2023/04/26 08:43:28;;;;;;;6.62;3.05;;;;;;;12.33;40.57;100251.31;5565025;32;33615;-58
2023/04/26 08:46:35;;;;;;;9.18;2.97;;;;;;;12.37;41.36;100246.94;5566599;32;34272;-58
2023/04/26 08:49:43;;;;;;;8.48;4.10;;;;;;;12.33;41.19;100254.00;5564262;32;32394;-58
2023/04/26 08:52:48;;;;;;;8.07;3.37;;;;;;;12.42;38.94;100246.87;5565690;32;33850;-58
2023/04/26 08:55:52;;;;;;;7.07;3.37;;;;;;;12.25;39.45;100260.84;5564765;32;34977;-58
2023/04/26 08:58:54;;;;;;;6.10;2.67;;;;;;;12.46;43.81;100267.47;5567156;32;34153;-58
2023/04/26 09:01:59;;;;;;;5.72;3.05;;;;;;;12.63;39.45;100266.91;5566870;32;34383;-58
2023/04/26 09:05:02;;;;;;;9.23;3.95;;;;;;;12.77;39.25;100271.50;5565872;32;33579;-58
2023/04/26 09:08:06;;;;;;;8.82;2.95;;;;;;;12.62;38.46;100272.59;5563624;32;34030;-57
2023/04/26 09:11:08;;;;;;;7.65;2.83;;;;;;;12.69;43.84;100271.09;5565182;32;36178;-58
2023/04/26 09:14:11;;;;;;;5.72;2.50;;;;;;;12.63;40.74;100269.59;5566641;32;33835;-58
2023/04/26 09:17:26;;;;;;;11.43;3.80;;;;;;;12.55;40.82;100264.91;5562858;32;33648;-58
2023/04/26 09:20:30;;;;;;;6.83;2.80;;;;;;;12.84;52.04;100255.78;5554919;32;34227;-58
2023/04/26 09:23:34;;;;;;;11.05;3.55;;;;;;;13.04;41.62;100278.81;5567191;32;33714;-57
2023/04/26 09:26:36;;;;;;;6.85;3.53;;;;;;;12.74;38.96;100267.50;5566527;32;33322;-57
2023/04/26 09:29:38;;;;;;;8.15;2.90;;;;;;;12.83;42.32;100267.63;5563465;32;34397;-58
2023/04/26 09:33:08;;;;;;;6.80;2.72;;;;;;;12.81;41.66;100270.59;5565937;32;33696;-58
2023/04/26 09:36:14;;;;;;;4.53;2.60;;;;;;;13.17;42.61;100264.53;5566518;32;33616;-58
2023/04/26 09:39:36;;;;;;;9.95;3.05;;;;;;;13.27;49.05;100250.91;5566922;32;33673;-58
2023/04/26 09:42:39;;;;;;;6.35;2.60;;;;;;;13.17;39.15;100272.62;5565645;32;33577;-58
2023/04/26 09:45:45;;;;;;;7.03;2.55;;;;;;;13.08;37.59;100260.97;5568095;32;34214;-58
2023/04/26 09:49:00;;;;;;;6.82;3.25;;;;;;;12.76;41.29;100275.31;5566845;32;33781;-57
2023/04/26 09:52:04;;;;;;;6.12;2.60;;;;;;;13.00;43.36;100272.44;5556934;32;33380;-58
2023/04/26 09:55:07;;;;;;;4.70;2.78;;;;;;;13.09;41.22;100276.03;5563143;32;33858;-58
2023/04/26 09:58:11;;;;;;;6.60;2.72;;;;;;;13.14;49.05;100265.97;5557975;32;33725;-58
2023/04/26 10:01:15;;;;;;;4.15;2.40;;;;;;;13.10;39.47;100267.63;5568484;32;34013;-58
2023/04/26 10:04:18;;;;;;;7.35;2.87;;;;;;;13.08;38.96;100260.97;5568332;32;33628;-58
2023/04/26 10:07:22;;;;;;;5.18;2.28;;;;;;;13.21;41.62;100252.09;5562790;32;33721;-58
2023/04/26 10:10:26;;;;;;;7.80;2.35;;;;;;;13.31;38.01;100269.94;5550872;32;33609;-58
2023/04/26 10:13:30;;;;;;;6.37;2.58;;;;;;;13.34;38.23;100264.78;5550814;32;34324;-58
2023/04/26 10:16:32;;;;;;;7.32;2.30;;;;;;;13.27;36.77;100264.37;5548709;32;34403;-58
2023/04/26 10:19:36;;;;;;;8.68;2.80;;;;;;;13.40;37.28;100252.78;5558511;32;33790;-58
2023/04/26 10:22:44;;;;;;;5.05;2.50;;;;;;;13.44;37.24;100261.06;5567018;32;33740;-58
2023/04/26 10:25:47;;;;;;;9.57;2.35;;;;;;;13.22;36.16;100260.97;5567029;32;33659;-58
2023/04/26 10:28:49;;;;;;;6.22;2.40;;;;;;;13.06;36.52;100261.25;5561737;32;34426;-59
2023/04/26 10:32:09;;;;;;;5.25;2.22;;;;;;;13.21;35.88;100262.03;5568123;32;33661;-58
2023/04/26 10:35:12;;;;;;;7.80;2.60;;;;;;;13.40;37.18;100277.00;5563623;32;34104;-58
2023/04/26 10:38:15;;;;;;;4.32;2.00;;;;;;;13.22;34.36;100256.38;5564800;32;34411;-58
2023/04/26 10:41:29;;;;;;;6.45;2.40;;;;;;;12.98;33.94;100264.66;5564839;32;33698;-58
2023/04/26 10:44:41;;;;;;;5.53;2.12;;;;;;;12.94;34.89;100299.41;5562633;32;34218;-58
2023/04/26 10:47:43;;;;;;;5.87;2.22;;;;;;;13.09;39.64;100282.19;5562221;32;35942;-58
2023/04/26 10:50:59;;;;;;;5.32;2.33;;;;;;;13.33;36.57;100273.16;5555091;32;33307;-58
2023/04/26 10:54:03;;;;;;;;;;;;;;;13.20;35.19;100272.03;5556252;32;34282;-58
2023/04/26 10:57:06;;;;;;;4.82;2.42;;;;;;;13.24;36.46;100256.88;5563291;32;33979;-58
2023/04/26 11:00:12;;;;;;;5.80;2.70;;;;;;;13.33;37.20;100273.94;5553056;32;33616;-58
2023/04/26 11:03:14;;;;;;;3.62;2.62;;;;;;;13.43;35.96;100256.78;5566446;32;33258;-58
2023/04/26 11:06:17;;;;;;;8.48;2.40;;;;;;;13.21;36.81;100272.81;5560904;32;33586;-57
2023/04/26 11:09:36;;;;;;;5.82;2.17;;;;;;;12.80;36.50;100287.84;5563733;31;33043;-58
2023/04/26 11:12:41;;;;;;;5.18;2.62;;;;;;;12.76;39.37;100268.03;5565732;32;34165;-58
2023/04/26 11:15:43;;;;;;;5.57;2.20;;;;;;;12.76;37.47;100292.25;5567774;32;33632;-58
2023/04/26 11:18:46;;;;;;;6.70;2.50;;;;;;;12.81;35.68;100269.81;5563071;32;33780;-58
2023/04/26 11:21:49;;;;;;;4.85;2.40;;;;;;;12.86;36.48;100272.41;5565035;32;34023;-58
2023/04/26 11:24:52;;;;;;;4.22;2.10;;;;;;;13.09;34.73;100276.81;5561220;32;33724;-58
2023/04/26 11:28:01;;;;;;;6.18;2.80;;;;;;;13.11;35.48;100263.03;5561474;32;33453;-58
2023/04/26 11:31:06;;;;;;;6.45;2.20;;;;;;;13.18;36.04;100260.78;5556703;32;33680;-58
2023/04/26 11:34:08;;;;;;;4.35;2.78;;;;;;;13.14;36.33;100267.84;5558578;32;34229;-58
2023/04/26 11:37:11;;;;;;;5.22;2.28;;;;;;;13.06;34.73;100266.66;5561795;32;34412;-58
2023/04/26 11:40:15;;;;;;;4.47;2.12;;;;;;;13.04;34.66;100270.72;5563080;32;33692;-58
2023/04/26 11:43:19;;;;;;;4.53;2.47;;;;;;;12.96;35.29;100285.69;5561591;32;33673;-58
2023/04/26 11:46:22;;;;;;;5.00;2.35;;;;;;;13.03;37.96;100278.00;5563686;32;33617;-58
2023/04/26 11:49:26;;;;;;;7.15;2.28;;;;;;;13.34;37.25;100272.03;5565107;32;33654;-58
2023/04/26 11:52:29;;;;;;;3.95;2.10;;;;;;;13.22;34.13;100282.50;5560804;32;33590;-58
2023/04/26 11:55:33;;;;;;;4.35;2.33;;;;;;;13.43;38.38;100269.44;5558156;32;33302;-58
2023/04/26 11:58:36;;;;;;;3.87;2.03;;;;;;;13.21;34.79;100270.94;5561486;32;33626;-58
2023/04/26 12:01:39;;;;;;;5.53;2.10;;;;;;;13.01;35.14;100272.13;5561147;32;33187;-58
2023/04/26 12:04:42;;;;;;;7.05;2.25;;;;;;;13.14;36.79;100279.41;5564598;32;33618;-58
2023/04/26 12:07:49;;;;;;;6.80;2.20;;;;;;;13.12;38.48;100276.22;5560920;32;33855;-58
2023/04/26 12:10:52;;;;;;;7.28;2.17;;;;;;;13.46;36.25;100280.41;5566679;32;34393;-58
2023/04/26 12:13:57;;;;;;;7.10;2.03;;;;;;;13.46;35.22;100269.62;5554479;32;33769;-57
2023/04/26 12:17:03;;;;;;;4.50;2.40;;;;;;;13.57;35.95;100267.50;5547739;32;33616;-57
2023/04/26 12:20:10;;;;;;;4.97;2.30;;;;;;;13.69;40.95;100267.00;5548091;32;33629;-56
2023/04/26 12:23:15;;;;;;;4.03;2.10;;;;;;;13.78;36.96;100257.09;5547968;32;33676;-55
2023/04/26 12:26:19;;;;;;;6.20;2.28;;;;;;;13.55;36.60;100269.72;5556543;32;33734;-55
2023/04/26 12:29:21;;;;;;;6.50;2.30;;;;;;;13.55;37.39;100275.91;5551482;32;33749;-56
2023/04/26 12:32:24;;;;;;;7.32;2.05;;;;;;;13.50;35.51;100273.31;5550319;32;34378;-55
2023/04/26 12:35:26;;;;;;;9.80;2.28;;;;;;;13.40;36.46;100268.94;5550052;32;34540;-56
2023/04/26 12:38:29;;;;;;;4.62;1.80;;;;;;;13.46;38.18;100282.31;5550540;32;34386;-56
2023/04/26 12:41:31;;;;;;;3.17;1.87;;;;;;;13.45;34.81;100283.41;5555413;32;33628;-56
2023/04/26 12:44:33;;;;;;;8.60;2.28;;;;;;;13.38;35.41;100297.28;5566279;32;33125;-56
2023/04/26 12:47:36;;;;;;;5.20;2.10;;;;;;;13.14;33.65;100284.81;5564251;32;32364;-55
2023/04/26 12:50:39;;;;;;;6.18;1.70;;;;;;;13.15;34.46;100290.97;5566148;32;33633;-55
2023/04/26 12:53:43;;;;;;;7.50;2.37;;;;;;;13.16;34.56;100281.81;5569055;32;33617;-55
2023/04/26 12:56:45;;;;;;;6.12;1.60;;;;;;;13.09;35.58;100282.19;5563776;32;34302;-56
2023/04/26 12:59:47;;;;;;;5.03;2.05;;;;;;;13.07;37.52;100319.38;5566324;32;34368;-56
2023/04/26 13:02:50;;;;;;;5.80;1.98;;;;;;;12.94;35.74;100306.69;5566653;32;33733;-56
2023/04/26 13:05:53;;;;;;;5.43;2.08;;;;;;;13.08;40.04;100299.44;5567063;32;33655;-56
2023/04/26 13:08:55;;;;;;;4.03;1.87;;;;;;;13.14;37.72;100298.25;5567045;31;35790;-56
2023/04/26 13:11:58;;;;;;;3.47;1.90;;;;;;;13.24;37.53;100299.13;5563296;32;33622;-55
2023/04/26 13:15:01;;;;;;;4.87;2.15;;;;;;;13.07;36.12;100310.50;5563770;32;34470;-55
2023/04/26 13:18:05;;;;;;;5.97;2.00;;;;;;;12.99;36.05;100301.22;5563922;32;33602;-56
2023/04/26 13:21:07;;;;;;;6.18;2.10;;;;;;;13.04;36.74;100294.94;5558247;32;34095;-56
2023/04/26 13:24:10;;;;;;;5.45;2.53;;;;;;;13.12;36.69;100299.66;5569090;32;33581;-55
2023/04/26 13:27:12;;;;;;;4.22;2.00;;;;;;;13.24;35.63;100296.44;5569456;32;33667;-56
2023/04/26 13:30:14;;;;;;;5.25;1.90;;;;;;;13.21;36.87;100308.63;5569316;32;34431;-57
2023/04/26 13:33:16;;;;;;;6.10;2.08;;;;;;;13.15;35.23;100326.75;5568608;32;33831;-56
2023/04/26 13:36:21;;;;;;;5.85;1.95;;;;;;;12.98;34.65;100323.88;5568985;32;33250;-55
2023/04/26 13:39:24;;;;;;;4.55;1.80;;;;;;;12.89;36.08;100323.75;5568668;32;33769;-56
2023/04/26 13:42:27;;;;;;;4.55;1.95;;;;;;;13.09;35.63;100325.25;5569171;32;33625;-56
2023/04/26 13:45:29;;;;;;;3.12;1.70;;;;;;;13.17;34.91;100324.56;5567448;32;33612;-57
2023/04/26 13:48:31;;;;;;;5.50;2.55;;;;;;;13.12;34.05;100330.06;5568496;32;34365;-55
2023/04/26 13:51:34;;;;;;;4.57;1.70;;;;;;;13.25;34.11;100317.72;5552570;32;33464;-56
2023/04/26 13:54:38;;;;;;;4.12;1.73;;;;;;;13.28;32.76;100314.44;5569551;32;33686;-55
2023/04/26 13:57:41;;;;;;;4.68;2.05;;;;;;;13.48;35.03;100326.69;5567237;32;34422;-56
2023/04/26 14:00:43;;;;;;;3.70;1.85;;;;;;;13.37;34.27;100334.16;5568126;32;33781;-55
2023/04/26 14:03:46;;;;;;;4.87;2.30;;;;;;;13.10;34.73;100331.44;5569555;32;33449;-55
2023/04/26 14:06:48;;;;;;;2.78;1.60;;;;;;;13.14;35.25;100335.94;5569409;32;34339;-56
2023/04/26 14:09:51;;;;;;;6.03;2.47;;;;;;;13.11;35.52;100339.22;5569497;32;33913;-56
2023/04/26 14:12:55;;;;;;;9.10;2.25;;;;;;;13.16;36.24;100341.81;5569073;32;33659;-55
2023/04/26 14:15:59;;;;;;;4.93;2.00;;;;;;;13.14;36.24;100335.94;5568810;32;33680;-56
2023/04/26 14:19:01;;;;;;;3.97;2.08;;;;;;;12.96;34.82;100334.12;5569701;32;34115;-55
2023/04/26 14:22:03;;;;;;;4.85;2.08;;;;;;;12.83;35.44;100334.88;5568950;32;33753;-57
2023/04/26 14:25:06;;;;;;;4.20;2.10;;;;;;;12.92;36.50;100336.59;5568781;32;33864;-56
2023/04/26 14:28:08;;;;;;;3.75;1.83;;;;;;;13.00;36.75;100339.69;5569203;32;33775;-55
2023/04/26 14:31:11;;;;;;;4.00;1.73;;;;;;;12.98;35.03;100340.00;5569059;32;34384;-56
2023/04/26 14:34:14;;;;;;;4.93;1.90;;;;;;;13.28;35.26;100324.41;5569477;32;33864;-56
2023/04/26 14:37:16;;;;;;;2.83;1.70;;;;;;;13.57;36.21;100324.06;5569345;32;33667;-55
2023/04/26 14:40:19;;;;;;;4.22;1.70;;;;;;;13.76;36.31;100323.94;5569020;32;33707;-55
2023/04/26 14:43:21;;;;;;;4.57;2.03;;;;;;;13.50;33.84;100337.94;5550810;32;33817;-55
2023/04/26 14:46:23;;;;;;;7.05;2.10;;;;;;;13.33;34.13;100332.37;5548666;32;33691;-54
2023/04/26 14:49:25;;;;;;;6.57;2.62;;;;;;;13.18;34.15;100336.13;5549760;32;34480;-57
2023/04/26 14:52:28;;;;;;;7.32;2.30;;;;;;;13.31;39.68;100327.31;5549781;32;34274;-56
2023/04/26 14:55:31;;;;;;;5.70;2.03;;;;;;;13.47;35.39;100333.16;5549792;32;34434;-55
2023/04/26 14:58:33;;;;;;;6.87;2.10;;;;;;;13.29;37.14;100339.47;5549843;32;33667;-55
2023/04/26 15:01:36;;;;;;;5.22;1.92;;;;;;;13.34;38.39;100350.94;5549494;32;34350;-55
2023/04/26 15:04:38;;;;;;;3.53;1.90;;;;;;;13.00;35.90;100342.37;5549748;32;33599;-55
2023/04/26 15:07:41;;;;;;;3.05;1.70;;;;;;;13.03;36.13;100347.19;5549429;32;34844;-55
2023/04/26 15:10:44;;;;;;;5.53;1.92;;;;;;;12.80;35.42;100354.31;5549344;32;33626;-55
2023/04/26 15:13:46;;;;;;;6.68;2.17;;;;;;;12.71;37.54;100367.62;5549703;32;33638;-57
2023/04/26 15:16:48;;;;;;;4.18;1.70;;;;;;;12.73;35.25;100359.28;5549611;32;33713;-55
